Latest Coastal Weather Observations for Centre Island

IDD60701

Issued at 12:31 am CST Sunday 24 May 2015 (issued every 10 minutes, with the page automatically refreshed every 10 minutes)

About coastal observations | Map of coastal stations | Coastal observations for NT | Marine services | Other Formats
Station Details ID: 014703 Name: CENTRE ISLAND Lat: -15.74 Lon: 136.82 Height: 12.2 m
Data from the previous 72 hours. | See also: Recent months at Centre Island
Date/Time
CST
Temp

°C
Wind Pressure Rain
since 9am
mm
Weather Cloud Vis
km
Sea
Height
m
Swell
Dir
 
Speed
knots
Gust
knots
hPa Trend Height
m
Period
s
Dir
24/12:30am 21.5 SSE 10 11 1016.7 - 0.0 - - - - - - -
24/12:00am 21.8 SSE 9 11 1016.8 - 0.0 - - - - - - -
 
Date/Time
CST
Temp

°C
Wind Pressure Rain
since 9am
mm
Weather Cloud Vis
km
Sea
Height
m
Swell
Dir
 
Speed
knots
Gust
knots
hPa Trend Height
m
Period
s
Dir
23/11:30pm 22.3 SSE 11 12 1016.8 - 0.0 - - - - - - -
23/11:00pm 23.1 ESE 12 14 1017.0 - 0.0 - - - - - - -
23/10:30pm 23.1 ESE 12 14 1016.9 - 0.0 - - - - - - -
23/10:00pm 23.0 ESE 10 12 1016.9 - 0.0 - - - - - - -
23/09:30pm 22.9 E 8 10 1016.8 - 0.0 - - - - - - -
23/09:00pm 22.8 E 9 11 1016.9 - 0.0 - - - - - - -
23/08:30pm 23.0 E 10 13 1016.7 - 0.0 - - - - - - -
23/08:00pm 23.1 E 11 14 1016.6 - 0.0 - - - - - - -
23/07:30pm 23.3 E 13 15 1016.3 - 0.0 - - - - - - -
23/07:00pm 23.5 E 13 15 1016.1 - 0.0 - - - - - - -
23/06:30pm 23.5 ENE 12 15 1015.7 - 0.0 - - - - - - -
23/06:00pm 23.8 ENE 12 14 1015.4 - 0.0 - - - - - - -
23/05:30pm 24.4 NE 11 14 1015.1 - 0.0 - - - - - - -
23/05:00pm 25.6 NE 8 11 1014.6 - 0.0 - - - - - - -
23/04:30pm 26.8 NE 4 5 1014.3 - 0.0 - - - - - - -
23/04:00pm 26.5 NE 4 6 1014.2 - 0.0 - - - - - - -
23/03:30pm 26.3 NE 5 6 1014.3 - 0.0 - - - - - - -
23/03:00pm 26.2 E 4 5 1014.5 - 0.0 - - - - - - -
23/02:30pm 25.5 ESE 4 5 1014.9 - 0.0 - - - - - - -
23/02:00pm 25.4 E 4 6 1015.4 - 0.0 - - - - - - -
23/01:30pm 26.1 ESE 5 6 1015.9 - 0.0 - - - - - - -
23/01:00pm 25.6 ESE 6 9 1016.5 - 0.0 - - - - - - -
23/12:30pm 25.8 SE 7 10 1017.1 - 0.0 - - - - - - -
23/12:00pm 24.9 SSE 9 11 1017.4 - 0.0 - - - - - - -
23/11:30am 24.4 SSE 9 12 1017.9 - 0.0 - - - - - - -
23/11:00am 24.1 SSE 12 16 1018.5 - 0.0 - - - - - - -
23/10:30am 23.9 SSE 13 16 1018.8 - 0.0 - - - - - - -
23/10:00am 22.8 SSE 14 18 1019.0 - 0.0 - - - - - - -
23/09:30am 22.2 SE 16 20 1019.2 - 0.0 - - - - - - -
23/09:00am 22.2 SSE 15 18 1019.3 - - - - - - - - -
23/08:30am 21.1 SE 17 21 1019.0 - - - - - - - - -
23/08:00am 21.0 SSE 17 21 1018.8 - - - - - - - - -
23/07:30am 20.8 SSE 16 20 1018.5 - - - - - - - - -
23/07:00am 20.5 SSE 16 19 1018.3 - - - - - - - - -
23/06:30am 20.2 SSE 16 19 1018.1 - - - - - - - - -
23/06:00am 20.5 SSE 16 19 1017.9 - - - - - - - - -
23/05:30am 20.9 SSE 16 19 1017.7 - - - - - - - - -
23/05:00am 21.0 SSE 16 19 1017.5 - - - - - - - - -
23/04:30am 21.3 SSE 15 18 1017.3 - - - - - - - - -
23/04:00am 21.6 SE 17 19 1017.4 - - - - - - - - -
23/03:30am 22.1 SE 19 23 1017.3 - - - - - - - - -
23/03:00am 22.3 SE 20 25 1017.3 - 0.0 - - - - - - -
23/02:30am 22.6 SE 21 25 1017.4 - - - - - - - - -
23/02:00am 22.9 SE 22 27 1017.4 - - - - - - - - -
23/01:30am 23.0 SE 20 23 1017.5 - - - - - - - - -
23/01:00am 23.1 SE 19 22 1017.6 - - - - - - - - -
23/12:30am 23.3 SE 19 23 1017.7 - - - - - - - - -
23/12:00am 23.6 SE 16 18 1017.8 - - - - - - - - -
 
Date/Time
CST
Temp

°C
Wind Pressure Rain
since 9am
mm
Weather Cloud Vis
km
Sea
Height
m
Swell
Dir
 
Speed
knots
Gust
knots
hPa Trend Height
m
Period
s
Dir
22/11:30pm 23.5 SE 14 16 1017.9 - - - - - - - - -
22/11:00pm 23.5 SE 13 14 1018.1 - - - - - - - - -
22/10:30pm 23.8 SE 15 17 1018.1 - - - - - - - - -
22/10:00pm 23.9 SE 14 18 1018.1 - - - - - - - - -
22/09:30pm 24.1 SE 15 20 1018.1 - - - - - - - - -
22/09:00pm 24.3 ESE 17 19 1017.9 - - - - - - - - -
22/08:30pm 24.3 ESE 14 18 1017.6 - - - - - - - - -
22/08:00pm 24.2 ESE 13 15 1017.4 - - - - - - - - -
22/07:30pm 24.0 ESE 9 12 1017.1 - - - - - - - - -
22/07:00pm 24.0 E 11 13 1016.7 - - - - - - - - -
22/06:30pm 24.1 E 12 15 1016.3 - - - - - - - - -
22/06:00pm 24.3 E 12 15 1016.1 - - - - - - - - -
22/05:30pm 25.0 E 11 13 1016.1 - - - - - - - - -
22/04:00pm 26.9 ENE 12 15 1015.4 - 0.0 - - - - - - -
22/03:30pm 27.2 E 12 15 1015.4 - 0.0 - - - - - - -
22/03:00pm 27.7 E 13 16 1015.6 - 0.0 - - - - - - -
22/02:30pm 27.5 E 11 15 1015.9 - 0.0 - - - - - - -
22/02:00pm 27.9 E 13 16 1016.3 - 0.0 - - - - - - -
22/01:30pm 28.2 E 11 14 1016.6 - 0.0 - - - - - - -
22/01:00pm 28.1 E 11 15 1017.0 - 0.0 - - - - - - -
22/12:30pm 27.8 E 14 17 1017.4 - 0.0 - - - - - - -
22/12:00pm 27.5 ESE 15 18 1017.7 - 0.0 - - - - - - -
22/11:30am 26.8 ESE 16 20 1018.2 - 0.0 - - - - - - -
22/11:00am 26.8 ESE 17 20 1018.6 - 0.0 - - - - - - -
22/10:30am 26.0 ESE 12 15 1018.9 - 0.0 - - - - - - -
22/10:00am 25.8 SE 10 12 1019.2 - 0.0 - - - - - - -
22/09:30am 25.2 SE 10 13 1019.4 - 0.0 - - - - - - -
22/09:00am 24.8 SE 11 14 1019.3 - 0.0 - - - - - - -
22/08:30am 24.3 SSE 12 16 1019.1 - 0.0 - - - - - - -
22/08:00am 23.8 SSE 12 14 1018.9 - 0.0 - - - - - - -
22/07:30am 23.4 SSE 14 17 1018.7 - 0.0 - - - - - - -
22/07:00am 23.2 SSE 14 16 1018.3 - 0.0 - - - - - - -
22/06:30am 23.3 SSE 14 17 1017.9 - 0.0 - - - - - - -
22/06:00am 23.5 S 15 18 1017.6 - 0.0 - - - - - - -
22/05:30am 23.9 S 16 19 1017.2 - 0.0 - - - - - - -
22/05:00am 24.1 S 17 22 1017.0 - 0.0 - - - - - - -
22/04:30am 24.1 SSE 18 21 1016.8 - 0.0 - - - - - - -
22/04:00am 24.0 SSE 17 20 1016.7 - 0.0 - - - - - - -
22/03:30am 24.3 SSE 17 20 1016.5 - 0.0 - - - - - - -
22/03:00am 24.4 SSE 15 18 1016.6 - 0.0 - - - - - - -
22/02:30am 24.6 SSE 13 16 1016.7 - 0.0 - - - - - - -
22/02:00am 24.4 SSE 12 13 1016.7 - 0.0 - - - - - - -
22/01:30am 24.2 S 14 16 1017.0 - 0.0 - - - - - - -
22/01:00am 24.3 SSE 10 15 1017.1 - 0.0 - - - - - - -
22/12:30am 24.1 SSE 5 6 1016.8 - 0.0 - - - - - - -
22/12:00am 24.1 S 3 5 1016.8 - 0.0 - - - - - - -
 
Date/Time
CST
Temp

°C
Wind Pressure Rain
since 9am
mm
Weather Cloud Vis
km
Sea
Height
m
Swell
Dir
 
Speed
knots
Gust
knots
hPa Trend Height
m
Period
s
Dir
21/11:30pm 24.3 SSE 6 7 1016.9 - 0.0 - - - - - - -
21/11:00pm 24.5 SE 9 10 1017.1 - 0.0 - - - - - - -
21/10:30pm 24.5 SE 8 9 1017.1 - 0.0 - - - - - - -
21/10:00pm 24.3 ESE 8 9 1016.8 - 0.0 - - - - - - -
21/09:30pm 24.2 ESE 5 6 1016.6 - 0.0 - - - - - - -
21/09:00pm 24.5 SSE 5 7 1016.3 - 0.0 - - - - - - -
21/08:30pm 24.7 N 4 5 1016.0 - 0.0 - - - - - - -
21/08:00pm 24.9 N 5 6 1015.6 - 0.0 - - - - - - -
21/07:30pm 25.0 NNE 5 7 1015.3 - 0.0 - - - - - - -
21/07:00pm 25.1 NNE 6 8 1015.1 - 0.0 - - - - - - -
21/06:30pm 25.3 NNE 7 10 1014.8 - 0.0 - - - - - - -
21/06:00pm 25.6 NNE 8 11 1014.4 - 0.0 - - - - - - -
21/05:30pm 26.2 NNE 9 12 1014.3 - 0.0 - - - - - - -
21/05:00pm 26.7 NNE 9 12 1014.1 - 0.0 - - - - - - -
21/04:30pm 27.2 NNE 11 14 1013.9 - 0.0 - - - - - - -
21/04:00pm 27.8 NNE 12 15 1013.9 - 0.0 - - - - - - -
21/03:30pm 28.4 NNE 13 17 1014.0 - 0.0 - - - - - - -
21/03:00pm 28.6 NE 13 18 1014.1 - 0.0 - - - - - - -
21/02:30pm 29.5 NNE 7 11 1014.3 - 0.0 - - - - - - -
21/02:00pm 29.4 NE 7 9 1014.6 - 0.0 - - - - - - -
21/01:30pm 31.7 ENE 4 6 1014.9 - 0.0 - - - - - - -
21/01:00pm 30.2 NE 5 6 1015.4 - 0.0 - - - - - - -
21/12:30pm 30.3 NE 5 6 1015.8 - 0.0 - - - - - - -
21/12:00pm 28.9 NE 4 6 1016.1 - 0.0 - - - - - - -
21/11:30am 28.3 WSW 3 4 1016.6 - 0.0 - - - - - - -
21/11:00am 27.5 W 4 6 1016.9 - 0.0 - - - - - - -
21/10:30am 26.1 WSW 4 5 1017.2 - 0.0 - - - - - - -
21/10:00am 25.3 S 4 6 1017.6 - 0.0 - - - - - - -
21/09:30am 24.9 SW 4 6 1017.3 - 0.0 - - - - - - -
21/09:00am 23.9 SW 5 7 1017.1 - - - - - - - - -
21/08:30am 23.6 WSW 6 7 1016.9 - - - - - - - - -
21/08:00am 23.5 WSW 6 8 1016.6 - - - - - - - - -
21/07:30am 23.5 SW 4 6 1016.4 - - - - - - - - -
21/07:00am 23.3 SW 4 5 1015.9 - - - - - - - - -
21/06:30am 23.3 SW 1 4 1015.5 - - - - - - - - -
21/06:00am 23.2 SW 5 6 1015.2 - - - - - - - - -
21/05:30am 23.4 SW 4 6 1014.9 - - - - - - - - -
21/05:00am 23.3 SW 4 5 1014.8 - - - - - - - - -
21/04:30am 23.1 SW 3 4 1014.6 - - - - - - - - -
21/04:00am 23.1 WSW 2 4 1014.6 - - - - - - - - -
21/03:30am 23.1 N 4 5 1014.5 - - - - - - - - -
21/03:00am 22.9 N 3 4 1014.7 - 0.0 - - - - - - -
21/02:30am 23.0 N 3 4 1015.0 - - - - - - - - -
21/02:00am 23.2 N 3 3 1015.2 - - - - - - - - -
21/01:30am 23.3 N 3 3 1015.5 - - - - - - - - -
21/01:00am 23.3 N 2 3 1015.7 - - - - - - - - -

Other Formats:

Comma delimited format used in spreadsheet applications
http://www.bom.gov.au/fwo/IDD60701/IDD60701.94248.axf

JavaScript Object Notation format (JSON) in row-major order
http://www.bom.gov.au/fwo/IDD60701/IDD60701.94248.json